sensor_id;sensor_type;location;lat;lon;timestamp;P1;durP1;ratioP1;P2;durP2;ratioP2
9160;SDS011;4615;51.340;8.288;2023-07-29T00:01:25;6.07;;;5.05;;
9160;SDS011;4615;51.340;8.288;2023-07-29T00:03:51;7.05;;;5.05;;
9160;SDS011;4615;51.340;8.288;2023-07-29T00:06:17;6.57;;;5.57;;
9160;SDS011;4615;51.340;8.288;2023-07-29T00:08:44;7.03;;;5.38;;
9160;SDS011;4615;51.340;8.288;2023-07-29T00:11:10;6.15;;;5.20;;
9160;SDS011;4615;51.340;8.288;2023-07-29T00:13:36;7.03;;;5.53;;
9160;SDS011;4615;51.340;8.288;2023-07-29T00:16:03;7.80;;;5.30;;
9160;SDS011;4615;51.340;8.288;2023-07-29T00:18:30;5.18;;;4.68;;
9160;SDS011;4615;51.340;8.288;2023-07-29T00:20:57;5.80;;;4.83;;
9160;SDS011;4615;51.340;8.288;2023-07-29T00:23:24;5.45;;;4.30;;
9160;SDS011;4615;51.340;8.288;2023-07-29T00:25:50;4.97;;;4.40;;
9160;SDS011;4615;51.340;8.288;2023-07-29T00:28:16;4.97;;;4.10;;
9160;SDS011;4615;51.340;8.288;2023-07-29T00:30:43;7.45;;;4.50;;
9160;SDS011;4615;51.340;8.288;2023-07-29T00:33:09;4.32;;;3.92;;
9160;SDS011;4615;51.340;8.288;2023-07-29T00:35:37;4.30;;;3.90;;
9160;SDS011;4615;51.340;8.288;2023-07-29T00:38:03;5.72;;;4.05;;
9160;SDS011;4615;51.340;8.288;2023-07-29T00:40:30;4.60;;;3.90;;
9160;SDS011;4615;51.340;8.288;2023-07-29T00:42:57;4.10;;;3.70;;
9160;SDS011;4615;51.340;8.288;2023-07-29T00:45:23;4.72;;;3.70;;
9160;SDS011;4615;51.340;8.288;2023-07-29T00:47:51;5.55;;;3.90;;
9160;SDS011;4615;51.340;8.288;2023-07-29T00:50:17;4.65;;;4.05;;
9160;SDS011;4615;51.340;8.288;2023-07-29T00:52:45;4.05;;;3.65;;
9160;SDS011;4615;51.340;8.288;2023-07-29T00:55:11;5.47;;;3.60;;
9160;SDS011;4615;51.340;8.288;2023-07-29T00:57:38;3.70;;;3.40;;
9160;SDS011;4615;51.340;8.288;2023-07-29T01:00:05;3.80;;;3.50;;
9160;SDS011;4615;51.340;8.288;2023-07-29T01:02:33;4.03;;;3.70;;
9160;SDS011;4615;51.340;8.288;2023-07-29T01:05:00;4.07;;;3.17;;
9160;SDS011;4615;51.340;8.288;2023-07-29T01:07:29;5.32;;;3.40;;
9160;SDS011;4615;51.340;8.288;2023-07-29T01:10:00;3.33;;;3.13;;
9160;SDS011;4615;51.340;8.288;2023-07-29T01:12:28;5.00;;;3.28;;
9160;SDS011;4615;51.340;8.288;2023-07-29T01:14:59;5.38;;;4.07;;
9160;SDS011;4615;51.340;8.288;2023-07-29T01:17:28;5.20;;;4.22;;
9160;SDS011;4615;51.340;8.288;2023-07-29T01:19:59;4.05;;;3.50;;
9160;SDS011;4615;51.340;8.288;2023-07-29T01:22:27;3.33;;;3.10;;
9160;SDS011;4615;51.340;8.288;2023-07-29T01:24:56;3.30;;;3.00;;
9160;SDS011;4615;51.340;8.288;2023-07-29T01:27:22;3.70;;;3.40;;
9160;SDS011;4615;51.340;8.288;2023-07-29T01:29:48;4.18;;;3.80;;
9160;SDS011;4615;51.340;8.288;2023-07-29T01:32:17;3.40;;;3.10;;
9160;SDS011;4615;51.340;8.288;2023-07-29T01:34:45;3.15;;;2.85;;
9160;SDS011;4615;51.340;8.288;2023-07-29T01:37:15;3.00;;;2.80;;
9160;SDS011;4615;51.340;8.288;2023-07-29T01:39:43;3.40;;;3.10;;
9160;SDS011;4615;51.340;8.288;2023-07-29T01:42:12;3.58;;;2.70;;
9160;SDS011;4615;51.340;8.288;2023-07-29T01:44:38;3.28;;;2.97;;
9160;SDS011;4615;51.340;8.288;2023-07-29T01:47:07;4.17;;;2.70;;
9160;SDS011;4615;51.340;8.288;2023-07-29T01:49:33;2.78;;;2.42;;
9160;SDS011;4615;51.340;8.288;2023-07-29T01:52:00;2.65;;;2.45;;
9160;SDS011;4615;51.340;8.288;2023-07-29T01:54:26;2.90;;;2.60;;
9160;SDS011;4615;51.340;8.288;2023-07-29T01:56:52;2.70;;;2.50;;
9160;SDS011;4615;51.340;8.288;2023-07-29T01:59:20;2.78;;;2.58;;
9160;SDS011;4615;51.340;8.288;2023-07-29T02:01:46;3.10;;;2.80;;
9160;SDS011;4615;51.340;8.288;2023-07-29T02:04:14;3.10;;;2.55;;
9160;SDS011;4615;51.340;8.288;2023-07-29T02:06:40;3.00;;;2.63;;
9160;SDS011;4615;51.340;8.288;2023-07-29T02:09:08;3.38;;;3.08;;
9160;SDS011;4615;51.340;8.288;2023-07-29T02:11:34;4.97;;;3.10;;
9160;SDS011;4615;51.340;8.288;2023-07-29T02:14:01;3.47;;;3.17;;
9160;SDS011;4615;51.340;8.288;2023-07-29T02:16:28;4.00;;;3.23;;
9160;SDS011;4615;51.340;8.288;2023-07-29T02:18:55;3.88;;;3.50;;
9160;SDS011;4615;51.340;8.288;2023-07-29T02:21:21;3.35;;;3.15;;
9160;SDS011;4615;51.340;8.288;2023-07-29T02:23:48;3.60;;;3.30;;
9160;SDS011;4615;51.340;8.288;2023-07-29T02:26:14;4.00;;;3.40;;
9160;SDS011;4615;51.340;8.288;2023-07-29T02:28:40;3.53;;;3.22;;
9160;SDS011;4615;51.340;8.288;2023-07-29T02:31:14;3.20;;;3.00;;
9160;SDS011;4615;51.340;8.288;2023-07-29T02:33:42;3.50;;;3.20;;
9160;SDS011;4615;51.340;8.288;2023-07-29T02:36:08;4.30;;;2.95;;
9160;SDS011;4615;51.340;8.288;2023-07-29T02:38:35;3.25;;;2.80;;
9160;SDS011;4615;51.340;8.288;2023-07-29T02:41:01;3.00;;;2.80;;
9160;SDS011;4615;51.340;8.288;2023-07-29T02:43:27;3.50;;;3.17;;
9160;SDS011;4615;51.340;8.288;2023-07-29T02:45:54;3.30;;;3.00;;
9160;SDS011;4615;51.340;8.288;2023-07-29T02:48:20;3.50;;;3.10;;
9160;SDS011;4615;51.340;8.288;2023-07-29T02:50:48;3.20;;;3.00;;
9160;SDS011;4615;51.340;8.288;2023-07-29T02:53:14;3.13;;;2.92;;
9160;SDS011;4615;51.340;8.288;2023-07-29T02:55:41;3.35;;;3.00;;
9160;SDS011;4615;51.340;8.288;2023-07-29T02:58:07;3.10;;;2.90;;
9160;SDS011;4615;51.340;8.288;2023-07-29T03:00:33;3.30;;;3.00;;
9160;SDS011;4615;51.340;8.288;2023-07-29T03:03:00;2.80;;;2.60;;
9160;SDS011;4615;51.340;8.288;2023-07-29T03:05:27;2.42;;;2.30;;
9160;SDS011;4615;51.340;8.288;2023-07-29T03:07:54;2.83;;;2.63;;
9160;SDS011;4615;51.340;8.288;2023-07-29T03:10:21;3.10;;;2.80;;
9160;SDS011;4615;51.340;8.288;2023-07-29T03:12:47;3.03;;;2.70;;
9160;SDS011;4615;51.340;8.288;2023-07-29T03:15:13;2.80;;;2.60;;
9160;SDS011;4615;51.340;8.288;2023-07-29T03:17:40;2.80;;;2.60;;
9160;SDS011;4615;51.340;8.288;2023-07-29T03:20:07;2.80;;;2.50;;
9160;SDS011;4615;51.340;8.288;2023-07-29T03:22:33;3.00;;;2.20;;
9160;SDS011;4615;51.340;8.288;2023-07-29T03:25:01;3.55;;;2.90;;
9160;SDS011;4615;51.340;8.288;2023-07-29T03:27:28;3.60;;;3.30;;
9160;SDS011;4615;51.340;8.288;2023-07-29T03:29:55;3.30;;;2.90;;
9160;SDS011;4615;51.340;8.288;2023-07-29T03:32:21;3.45;;;3.15;;
9160;SDS011;4615;51.340;8.288;2023-07-29T03:34:48;3.58;;;3.30;;
9160;SDS011;4615;51.340;8.288;2023-07-29T03:37:14;3.97;;;3.47;;
9160;SDS011;4615;51.340;8.288;2023-07-29T03:39:41;4.10;;;3.70;;
9160;SDS011;4615;51.340;8.288;2023-07-29T03:42:09;4.25;;;3.70;;
9160;SDS011;4615;51.340;8.288;2023-07-29T03:44:35;4.57;;;3.88;;
9160;SDS011;4615;51.340;8.288;2023-07-29T03:47:04;4.28;;;3.95;;
9160;SDS011;4615;51.340;8.288;2023-07-29T03:49:30;4.82;;;4.10;;
9160;SDS011;4615;51.340;8.288;2023-07-29T03:51:56;4.40;;;4.00;;
9160;SDS011;4615;51.340;8.288;2023-07-29T03:54:23;4.50;;;4.00;;
9160;SDS011;4615;51.340;8.288;2023-07-29T03:56:49;4.38;;;3.80;;
9160;SDS011;4615;51.340;8.288;2023-07-29T03:59:17;5.10;;;4.05;;
9160;SDS011;4615;51.340;8.288;2023-07-29T04:01:43;4.75;;;4.25;;
9160;SDS011;4615;51.340;8.288;2023-07-29T04:04:10;4.30;;;3.90;;
9160;SDS011;4615;51.340;8.288;2023-07-29T04:06:36;4.50;;;4.10;;
9160;SDS011;4615;51.340;8.288;2023-07-29T04:09:02;4.38;;;4.00;;
9160;SDS011;4615;51.340;8.288;2023-07-29T04:11:29;4.15;;;3.80;;
9160;SDS011;4615;51.340;8.288;2023-07-29T04:13:55;4.03;;;3.60;;
9160;SDS011;4615;51.340;8.288;2023-07-29T04:16:23;4.40;;;3.40;;
9160;SDS011;4615;51.340;8.288;2023-07-29T04:18:49;3.70;;;3.40;;
9160;SDS011;4615;51.340;8.288;2023-07-29T04:21:16;3.35;;;2.97;;
9160;SDS011;4615;51.340;8.288;2023-07-29T04:23:42;3.55;;;3.20;;
9160;SDS011;4615;51.340;8.288;2023-07-29T04:26:09;3.72;;;3.42;;
9160;SDS011;4615;51.340;8.288;2023-07-29T04:28:35;3.15;;;2.90;;
9160;SDS011;4615;51.340;8.288;2023-07-29T04:31:01;4.18;;;3.13;;
9160;SDS011;4615;51.340;8.288;2023-07-29T04:33:30;3.33;;;3.00;;
9160;SDS011;4615;51.340;8.288;2023-07-29T04:35:56;3.60;;;3.30;;
9160;SDS011;4615;51.340;8.288;2023-07-29T04:38:24;3.55;;;3.10;;
9160;SDS011;4615;51.340;8.288;2023-07-29T04:40:50;3.00;;;2.80;;
9160;SDS011;4615;51.340;8.288;2023-07-29T04:43:16;2.80;;;2.60;;
9160;SDS011;4615;51.340;8.288;2023-07-29T04:45:43;3.13;;;2.80;;
9160;SDS011;4615;51.340;8.288;2023-07-29T04:48:09;3.20;;;2.40;;
9160;SDS011;4615;51.340;8.288;2023-07-29T04:50:37;2.47;;;2.28;;
9160;SDS011;4615;51.340;8.288;2023-07-29T04:53:03;2.80;;;2.60;;
9160;SDS011;4615;51.340;8.288;2023-07-29T04:55:30;2.92;;;2.50;;
9160;SDS011;4615;51.340;8.288;2023-07-29T04:57:56;2.70;;;2.28;;
9160;SDS011;4615;51.340;8.288;2023-07-29T05:00:22;2.45;;;2.25;;
9160;SDS011;4615;51.340;8.288;2023-07-29T05:02:49;3.13;;;2.30;;
9160;SDS011;4615;51.340;8.288;2023-07-29T05:05:15;2.37;;;2.17;;
9160;SDS011;4615;51.340;8.288;2023-07-29T05:07:43;2.60;;;2.10;;
9160;SDS011;4615;51.340;8.288;2023-07-29T05:10:09;1.93;;;1.83;;
9160;SDS011;4615;51.340;8.288;2023-07-29T05:12:36;1.90;;;1.80;;
9160;SDS011;4615;51.340;8.288;2023-07-29T05:15:03;2.03;;;1.90;;
9160;SDS011;4615;51.340;8.288;2023-07-29T05:17:29;1.80;;;1.70;;
9160;SDS011;4615;51.340;8.288;2023-07-29T05:19:56;1.70;;;1.60;;
9160;SDS011;4615;51.340;8.288;2023-07-29T05:22:22;1.53;;;1.40;;
9160;SDS011;4615;51.340;8.288;2023-07-29T05:24:51;1.73;;;1.60;;
9160;SDS011;4615;51.340;8.288;2023-07-29T05:27:17;2.63;;;1.55;;
9160;SDS011;4615;51.340;8.288;2023-07-29T05:29:44;2.08;;;1.35;;
9160;SDS011;4615;51.340;8.288;2023-07-29T05:32:10;2.00;;;1.45;;
9160;SDS011;4615;51.340;8.288;2023-07-29T05:34:36;1.98;;;1.40;;
9160;SDS011;4615;51.340;8.288;2023-07-29T05:37:03;1.95;;;1.50;;
9160;SDS011;4615;51.340;8.288;2023-07-29T05:39:29;3.50;;;1.45;;
9160;SDS011;4615;51.340;8.288;2023-07-29T05:41:58;1.60;;;1.50;;
9160;SDS011;4615;51.340;8.288;2023-07-29T05:44:27;1.83;;;1.43;;
9160;SDS011;4615;51.340;8.288;2023-07-29T05:46:54;1.75;;;1.45;;
9160;SDS011;4615;51.340;8.288;2023-07-29T05:49:21;1.67;;;1.50;;
9160;SDS011;4615;51.340;8.288;2023-07-29T05:51:47;1.50;;;1.40;;
9160;SDS011;4615;51.340;8.288;2023-07-29T05:54:13;2.00;;;1.50;;
9160;SDS011;4615;51.340;8.288;2023-07-29T05:56:40;1.65;;;1.55;;
9160;SDS011;4615;51.340;8.288;2023-07-29T05:59:07;1.50;;;1.40;;
9160;SDS011;4615;51.340;8.288;2023-07-29T06:01:34;1.90;;;1.52;;
9160;SDS011;4615;51.340;8.288;2023-07-29T06:04:00;3.15;;;1.50;;
9160;SDS011;4615;51.340;8.288;2023-07-29T06:06:26;1.60;;;1.50;;
9160;SDS011;4615;51.340;8.288;2023-07-29T06:08:53;1.90;;;1.80;;
9160;SDS011;4615;51.340;8.288;2023-07-29T06:11:19;2.53;;;1.80;;
9160;SDS011;4615;51.340;8.288;2023-07-29T06:13:46;2.45;;;1.92;;
9160;SDS011;4615;51.340;8.288;2023-07-29T06:16:14;2.40;;;2.08;;
9160;SDS011;4615;51.340;8.288;2023-07-29T06:18:41;2.70;;;2.50;;
9160;SDS011;4615;51.340;8.288;2023-07-29T06:21:07;2.60;;;2.40;;
9160;SDS011;4615;51.340;8.288;2023-07-29T06:23:36;2.40;;;2.20;;
9160;SDS011;4615;51.340;8.288;2023-07-29T06:26:03;2.22;;;2.03;;
9160;SDS011;4615;51.340;8.288;2023-07-29T06:28:29;2.20;;;2.00;;
9160;SDS011;4615;51.340;8.288;2023-07-29T06:30:55;2.08;;;1.90;;
9160;SDS011;4615;51.340;8.288;2023-07-29T06:33:23;2.10;;;1.90;;
9160;SDS011;4615;51.340;8.288;2023-07-29T06:35:49;1.88;;;1.77;;
9160;SDS011;4615;51.340;8.288;2023-07-29T06:38:16;1.88;;;1.67;;
9160;SDS011;4615;51.340;8.288;2023-07-29T06:40:46;1.93;;;1.80;;
9160;SDS011;4615;51.340;8.288;2023-07-29T06:43:13;1.98;;;1.77;;
9160;SDS011;4615;51.340;8.288;2023-07-29T06:45:39;2.10;;;1.92;;
9160;SDS011;4615;51.340;8.288;2023-07-29T06:48:06;2.70;;;1.90;;
9160;SDS011;4615;51.340;8.288;2023-07-29T06:50:33;2.20;;;1.88;;
9160;SDS011;4615;51.340;8.288;2023-07-29T06:53:00;2.78;;;2.03;;
9160;SDS011;4615;51.340;8.288;2023-07-29T06:55:26;2.60;;;2.10;;
9160;SDS011;4615;51.340;8.288;2023-07-29T06:57:52;2.38;;;2.13;;
9160;SDS011;4615;51.340;8.288;2023-07-29T07:00:19;2.45;;;2.25;;
9160;SDS011;4615;51.340;8.288;2023-07-29T07:02:45;2.70;;;2.50;;
9160;SDS011;4615;51.340;8.288;2023-07-29T07:05:11;2.60;;;2.40;;
9160;SDS011;4615;51.340;8.288;2023-07-29T07:07:39;2.83;;;2.63;;
9160;SDS011;4615;51.340;8.288;2023-07-29T07:10:06;3.17;;;2.88;;
9160;SDS011;4615;51.340;8.288;2023-07-29T07:12:32;3.10;;;2.80;;
9160;SDS011;4615;51.340;8.288;2023-07-29T07:14:59;3.08;;;2.88;;
9160;SDS011;4615;51.340;8.288;2023-07-29T07:17:26;3.00;;;2.70;;
9160;SDS011;4615;51.340;8.288;2023-07-29T07:19:52;3.28;;;3.03;;
9160;SDS011;4615;51.340;8.288;2023-07-29T07:22:19;2.97;;;2.78;;
9160;SDS011;4615;51.340;8.288;2023-07-29T07:24:46;3.58;;;3.28;;
9160;SDS011;4615;51.340;8.288;2023-07-29T07:27:13;3.50;;;3.20;;
9160;SDS011;4615;51.340;8.288;2023-07-29T07:29:40;3.50;;;3.20;;
9160;SDS011;4615;51.340;8.288;2023-07-29T07:32:06;3.40;;;3.20;;
9160;SDS011;4615;51.340;8.288;2023-07-29T07:34:32;4.25;;;3.38;;
9160;SDS011;4615;51.340;8.288;2023-07-29T07:36:59;3.67;;;3.40;;
9160;SDS011;4615;51.340;8.288;2023-07-29T07:39:26;4.28;;;3.90;;
9160;SDS011;4615;51.340;8.288;2023-07-29T07:41:54;4.22;;;3.92;;
9160;SDS011;4615;51.340;8.288;2023-07-29T07:44:20;4.55;;;4.15;;
9160;SDS011;4615;51.340;8.288;2023-07-29T07:46:46;4.40;;;4.00;;
9160;SDS011;4615;51.340;8.288;2023-07-29T07:49:13;4.20;;;3.90;;
9160;SDS011;4615;51.340;8.288;2023-07-29T07:51:40;4.20;;;3.90;;
9160;SDS011;4615;51.340;8.288;2023-07-29T07:54:06;4.32;;;4.03;;
9160;SDS011;4615;51.340;8.288;2023-07-29T07:56:32;4.63;;;4.22;;
9160;SDS011;4615;51.340;8.288;2023-07-29T07:59:00;3.70;;;3.50;;
9160;SDS011;4615;51.340;8.288;2023-07-29T08:01:26;4.07;;;3.70;;
9160;SDS011;4615;51.340;8.288;2023-07-29T08:03:53;3.97;;;3.67;;
9160;SDS011;4615;51.340;8.288;2023-07-29T08:06:19;3.85;;;3.55;;
9160;SDS011;4615;51.340;8.288;2023-07-29T08:08:46;3.53;;;3.23;;
9160;SDS011;4615;51.340;8.288;2023-07-29T08:11:12;3.60;;;3.30;;
9160;SDS011;4615;51.340;8.288;2023-07-29T08:13:39;3.20;;;3.00;;
9160;SDS011;4615;51.340;8.288;2023-07-29T08:16:06;3.07;;;2.87;;
9160;SDS011;4615;51.340;8.288;2023-07-29T08:18:33;3.10;;;2.80;;
9160;SDS011;4615;51.340;8.288;2023-07-29T08:21:00;3.55;;;3.20;;
9160;SDS011;4615;51.340;8.288;2023-07-29T08:23:27;3.30;;;3.10;;
9160;SDS011;4615;51.340;8.288;2023-07-29T08:25:54;3.10;;;2.90;;
9160;SDS011;4615;51.340;8.288;2023-07-29T08:28:26;3.42;;;2.90;;
9160;SDS011;4615;51.340;8.288;2023-07-29T08:30:52;3.10;;;2.90;;
9160;SDS011;4615;51.340;8.288;2023-07-29T08:33:20;3.23;;;3.03;;
9160;SDS011;4615;51.340;8.288;2023-07-29T08:35:46;2.95;;;2.67;;
9160;SDS011;4615;51.340;8.288;2023-07-29T08:38:12;3.10;;;2.90;;
9160;SDS011;4615;51.340;8.288;2023-07-29T08:40:43;3.13;;;2.83;;
9160;SDS011;4615;51.340;8.288;2023-07-29T08:43:11;3.00;;;2.80;;
9160;SDS011;4615;51.340;8.288;2023-07-29T08:45:38;2.90;;;2.70;;
9160;SDS011;4615;51.340;8.288;2023-07-29T08:48:06;2.78;;;2.58;;
9160;SDS011;4615;51.340;8.288;2023-07-29T08:50:34;3.22;;;2.85;;
9160;SDS011;4615;51.340;8.288;2023-07-29T08:53:02;3.00;;;2.80;;
9160;SDS011;4615;51.340;8.288;2023-07-29T08:55:30;3.13;;;2.83;;
9160;SDS011;4615;51.340;8.288;2023-07-29T08:57:56;3.00;;;2.80;;
9160;SDS011;4615;51.340;8.288;2023-07-29T09:00:23;2.85;;;2.63;;
9160;SDS011;4615;51.340;8.288;2023-07-29T09:02:49;2.78;;;2.55;;
9160;SDS011;4615;51.340;8.288;2023-07-29T09:05:16;2.80;;;2.57;;
9160;SDS011;4615;51.340;8.288;2023-07-29T09:07:42;2.63;;;2.43;;
9160;SDS011;4615;51.340;8.288;2023-07-29T09:10:10;2.60;;;2.40;;
9160;SDS011;4615;51.340;8.288;2023-07-29T09:12:39;3.40;;;2.40;;
9160;SDS011;4615;51.340;8.288;2023-07-29T09:15:06;2.35;;;2.15;;
9160;SDS011;4615;51.340;8.288;2023-07-29T09:17:33;2.88;;;2.60;;
9160;SDS011;4615;51.340;8.288;2023-07-29T09:19:59;2.50;;;2.30;;
9160;SDS011;4615;51.340;8.288;2023-07-29T09:22:26;3.47;;;2.40;;
9160;SDS011;4615;51.340;8.288;2023-07-29T09:24:54;2.60;;;2.33;;
9160;SDS011;4615;51.340;8.288;2023-07-29T09:27:23;2.30;;;2.10;;
9160;SDS011;4615;51.340;8.288;2023-07-29T09:29:49;2.70;;;2.50;;
9160;SDS011;4615;51.340;8.288;2023-07-29T09:32:19;2.20;;;2.10;;
9160;SDS011;4615;51.340;8.288;2023-07-29T09:34:46;2.45;;;2.25;;
9160;SDS011;4615;51.340;8.288;2023-07-29T09:37:15;2.35;;;2.15;;
9160;SDS011;4615;51.340;8.288;2023-07-29T09:39:43;3.03;;;2.10;;
9160;SDS011;4615;51.340;8.288;2023-07-29T09:42:12;2.08;;;1.95;;
9160;SDS011;4615;51.340;8.288;2023-07-29T09:44:42;2.15;;;2.05;;
9160;SDS011;4615;51.340;8.288;2023-07-29T09:47:08;2.28;;;2.08;;
9160;SDS011;4615;51.340;8.288;2023-07-29T09:49:34;2.30;;;2.10;;
9160;SDS011;4615;51.340;8.288;2023-07-29T09:52:01;2.97;;;1.98;;
9160;SDS011;4615;51.340;8.288;2023-07-29T09:54:29;2.70;;;2.03;;
9160;SDS011;4615;51.340;8.288;2023-07-29T09:56:55;2.20;;;2.00;;
9160;SDS011;4615;51.340;8.288;2023-07-29T09:59:24;2.53;;;2.17;;
9160;SDS011;4615;51.340;8.288;2023-07-29T10:01:50;2.10;;;1.90;;
9160;SDS011;4615;51.340;8.288;2023-07-29T10:04:17;1.98;;;1.88;;
9160;SDS011;4615;51.340;8.288;2023-07-29T10:06:43;1.98;;;1.77;;
9160;SDS011;4615;51.340;8.288;2023-07-29T10:11:36;2.35;;;1.90;;
9160;SDS011;4615;51.340;8.288;2023-07-29T10:14:03;2.33;;;1.70;;
9160;SDS011;4615;51.340;8.288;2023-07-29T10:16:31;1.90;;;1.80;;
9160;SDS011;4615;51.340;8.288;2023-07-29T10:18:58;1.88;;;1.70;;
9160;SDS011;4615;51.340;8.288;2023-07-29T10:21:25;1.98;;;1.88;;
9160;SDS011;4615;51.340;8.288;2023-07-29T10:23:52;1.80;;;1.70;;
9160;SDS011;4615;51.340;8.288;2023-07-29T10:26:19;1.80;;;1.70;;
9160;SDS011;4615;51.340;8.288;2023-07-29T10:28:46;2.10;;;1.77;;
9160;SDS011;4615;51.340;8.288;2023-07-29T10:31:14;1.70;;;1.60;;
9160;SDS011;4615;51.340;8.288;2023-07-29T10:33:42;1.70;;;1.60;;
9160;SDS011;4615;51.340;8.288;2023-07-29T10:36:10;2.00;;;1.85;;
9160;SDS011;4615;51.340;8.288;2023-07-29T10:38:36;2.22;;;1.75;;
9160;SDS011;4615;51.340;8.288;2023-07-29T10:41:03;1.80;;;1.70;;
9160;SDS011;4615;51.340;8.288;2023-07-29T10:43:31;2.25;;;1.80;;
9160;SDS011;4615;51.340;8.288;2023-07-29T10:45:58;2.10;;;1.70;;
9160;SDS011;4615;51.340;8.288;2023-07-29T10:48:40;1.80;;;1.70;;
9160;SDS011;4615;51.340;8.288;2023-07-29T10:53:59;7.93;;;2.10;;
9160;SDS011;4615;51.340;8.288;2023-07-29T10:56:26;3.15;;;2.00;;
9160;SDS011;4615;51.340;8.288;2023-07-29T10:58:52;1.52;;;1.40;;
9160;SDS011;4615;51.340;8.288;2023-07-29T11:01:26;1.60;;;1.50;;
9160;SDS011;4615;51.340;8.288;2023-07-29T11:04:00;2.30;;;1.33;;
9160;SDS011;4615;51.340;8.288;2023-07-29T11:06:27;1.40;;;1.30;;
9160;SDS011;4615;51.340;8.288;2023-07-29T11:08:53;1.42;;;1.33;;
9160;SDS011;4615;51.340;8.288;2023-07-29T11:11:21;2.63;;;1.40;;
9160;SDS011;4615;51.340;8.288;2023-07-29T11:13:47;1.80;;;1.40;;
9160;SDS011;4615;51.340;8.288;2023-07-29T11:16:14;1.98;;;1.50;;
9160;SDS011;4615;51.340;8.288;2023-07-29T11:18:42;1.40;;;1.30;;
9160;SDS011;4615;51.340;8.288;2023-07-29T11:21:09;1.50;;;1.40;;
9160;SDS011;4615;51.340;8.288;2023-07-29T11:23:36;1.80;;;1.38;;
9160;SDS011;4615;51.340;8.288;2023-07-29T11:26:03;1.60;;;1.50;;
9160;SDS011;4615;51.340;8.288;2023-07-29T11:28:31;1.50;;;1.40;;
9160;SDS011;4615;51.340;8.288;2023-07-29T11:31:03;1.90;;;1.50;;
9160;SDS011;4615;51.340;8.288;2023-07-29T11:33:29;1.50;;;1.40;;
9160;SDS011;4615;51.340;8.288;2023-07-29T11:35:56;2.40;;;1.50;;
9160;SDS011;4615;51.340;8.288;2023-07-29T11:38:22;1.50;;;1.40;;
9160;SDS011;4615;51.340;8.288;2023-07-29T11:40:55;1.52;;;1.20;;
9160;SDS011;4615;51.340;8.288;2023-07-29T11:43:22;1.40;;;1.30;;
9160;SDS011;4615;51.340;8.288;2023-07-29T11:45:50;1.58;;;1.48;;
9160;SDS011;4615;51.340;8.288;2023-07-29T11:48:17;1.60;;;1.50;;
9160;SDS011;4615;51.340;8.288;2023-07-29T11:50:43;1.50;;;1.40;;
9160;SDS011;4615;51.340;8.288;2023-07-29T11:53:11;1.55;;;1.40;;
9160;SDS011;4615;51.340;8.288;2023-07-29T11:55:38;1.58;;;1.48;;
9160;SDS011;4615;51.340;8.288;2023-07-29T11:58:04;1.98;;;1.60;;
9160;SDS011;4615;51.340;8.288;2023-07-29T12:00:31;2.00;;;1.50;;
9160;SDS011;4615;51.340;8.288;2023-07-29T12:02:58;1.60;;;1.50;;
9160;SDS011;4615;51.340;8.288;2023-07-29T12:05:25;2.10;;;1.50;;
9160;SDS011;4615;51.340;8.288;2023-07-29T12:07:52;1.50;;;1.40;;
9160;SDS011;4615;51.340;8.288;2023-07-29T12:10:18;1.92;;;1.60;;
9160;SDS011;4615;51.340;8.288;2023-07-29T12:12:46;1.60;;;1.50;;
9160;SDS011;4615;51.340;8.288;2023-07-29T12:15:12;1.42;;;1.33;;
9160;SDS011;4615;51.340;8.288;2023-07-29T12:17:39;1.80;;;1.42;;
9160;SDS011;4615;51.340;8.288;2023-07-29T12:20:09;2.83;;;1.60;;
9160;SDS011;4615;51.340;8.288;2023-07-29T12:22:36;1.58;;;1.48;;
9160;SDS011;4615;51.340;8.288;2023-07-29T12:25:21;1.73;;;1.63;;
9160;SDS011;4615;51.340;8.288;2023-07-29T12:28:06;2.03;;;1.65;;
9160;SDS011;4615;51.340;8.288;2023-07-29T12:30:53;1.50;;;1.40;;
9160;SDS011;4615;51.340;8.288;2023-07-29T12:33:40;1.75;;;1.60;;
9160;SDS011;4615;51.340;8.288;2023-07-29T12:36:08;1.52;;;1.42;;
9160;SDS011;4615;51.340;8.288;2023-07-29T12:38:35;1.63;;;1.50;;
9160;SDS011;4615;51.340;8.288;2023-07-29T12:41:02;1.70;;;1.60;;
9160;SDS011;4615;51.340;8.288;2023-07-29T12:43:28;2.55;;;1.90;;
9160;SDS011;4615;51.340;8.288;2023-07-29T12:45:54;1.70;;;1.60;;
9160;SDS011;4615;51.340;8.288;2023-07-29T12:48:22;2.17;;;1.85;;
9160;SDS011;4615;51.340;8.288;2023-07-29T12:50:49;1.70;;;1.60;;
9160;SDS011;4615;51.340;8.288;2023-07-29T12:53:18;1.83;;;1.73;;
9160;SDS011;4615;51.340;8.288;2023-07-29T12:55:44;2.17;;;1.97;;
9160;SDS011;4615;51.340;8.288;2023-07-29T12:58:10;1.95;;;1.85;;
9160;SDS011;4615;51.340;8.288;2023-07-29T13:00:37;1.92;;;1.70;;
9160;SDS011;4615;51.340;8.288;2023-07-29T13:03:03;2.90;;;1.90;;
9160;SDS011;4615;51.340;8.288;2023-07-29T13:05:30;2.20;;;2.00;;
9160;SDS011;4615;51.340;8.288;2023-07-29T13:07:57;2.15;;;1.90;;
9160;SDS011;4615;51.340;8.288;2023-07-29T13:10:24;1.95;;;1.80;;
9160;SDS011;4615;51.340;8.288;2023-07-29T13:12:51;2.40;;;1.90;;
9160;SDS011;4615;51.340;8.288;2023-07-29T13:15:17;1.70;;;1.60;;
9160;SDS011;4615;51.340;8.288;2023-07-29T13:17:43;1.90;;;1.80;;
9160;SDS011;4615;51.340;8.288;2023-07-29T13:20:10;1.97;;;1.87;;
9160;SDS011;4615;51.340;8.288;2023-07-29T13:22:36;2.55;;;1.55;;
9160;SDS011;4615;51.340;8.288;2023-07-29T13:25:03;2.30;;;1.88;;
9160;SDS011;4615;51.340;8.288;2023-07-29T13:27:31;1.83;;;1.73;;
9160;SDS011;4615;51.340;8.288;2023-07-29T13:29:57;3.15;;;1.83;;
9160;SDS011;4615;51.340;8.288;2023-07-29T13:32:23;1.90;;;1.63;;
9160;SDS011;4615;51.340;8.288;2023-07-29T13:34:50;2.40;;;1.50;;
9160;SDS011;4615;51.340;8.288;2023-07-29T13:37:16;2.10;;;1.80;;
9160;SDS011;4615;51.340;8.288;2023-07-29T13:39:42;2.30;;;1.75;;
9160;SDS011;4615;51.340;8.288;2023-07-29T13:42:09;1.95;;;1.85;;
9160;SDS011;4615;51.340;8.288;2023-07-29T13:44:37;2.15;;;1.98;;
9160;SDS011;4615;51.340;8.288;2023-07-29T13:47:03;2.10;;;1.90;;
9160;SDS011;4615;51.340;8.288;2023-07-29T13:49:29;2.70;;;2.00;;
9160;SDS011;4615;51.340;8.288;2023-07-29T13:51:56;2.05;;;1.88;;
9160;SDS011;4615;51.340;8.288;2023-07-29T13:54:22;2.17;;;2.00;;
9160;SDS011;4615;51.340;8.288;2023-07-29T13:56:49;2.83;;;2.05;;
9160;SDS011;4615;51.340;8.288;2023-07-29T13:59:15;2.00;;;1.90;;
9160;SDS011;4615;51.340;8.288;2023-07-29T14:01:43;2.20;;;2.00;;
9160;SDS011;4615;51.340;8.288;2023-07-29T14:04:09;3.08;;;2.05;;
9160;SDS011;4615;51.340;8.288;2023-07-29T14:06:35;2.38;;;2.17;;
9160;SDS011;4615;51.340;8.288;2023-07-29T14:09:02;3.63;;;2.40;;
9160;SDS011;4615;51.340;8.288;2023-07-29T14:11:28;2.67;;;2.10;;
9160;SDS011;4615;51.340;8.288;2023-07-29T14:13:54;2.25;;;2.05;;
9160;SDS011;4615;51.340;8.288;2023-07-29T14:16:21;2.63;;;1.90;;
9160;SDS011;4615;51.340;8.288;2023-07-29T14:18:48;2.10;;;2.00;;
9160;SDS011;4615;51.340;8.288;2023-07-29T14:21:15;2.20;;;2.00;;
9160;SDS011;4615;51.340;8.288;2023-07-29T14:23:41;2.42;;;2.22;;
9160;SDS011;4615;51.340;8.288;2023-07-29T14:26:07;2.30;;;1.92;;
9160;SDS011;4615;51.340;8.288;2023-07-29T14:28:34;2.00;;;1.85;;
9160;SDS011;4615;51.340;8.288;2023-07-29T14:31:01;2.07;;;1.90;;
9160;SDS011;4615;51.340;8.288;2023-07-29T14:33:27;2.20;;;2.00;;
9160;SDS011;4615;51.340;8.288;2023-07-29T14:35:55;2.25;;;2.00;;
9160;SDS011;4615;51.340;8.288;2023-07-29T14:38:21;2.67;;;1.90;;
9160;SDS011;4615;51.340;8.288;2023-07-29T14:40:48;1.98;;;1.80;;
9160;SDS011;4615;51.340;8.288;2023-07-29T14:43:15;2.58;;;1.95;;
9160;SDS011;4615;51.340;8.288;2023-07-29T14:45:42;2.30;;;2.00;;
9160;SDS011;4615;51.340;8.288;2023-07-29T14:48:08;1.98;;;1.88;;
9160;SDS011;4615;51.340;8.288;2023-07-29T14:50:34;2.10;;;2.00;;
9160;SDS011;4615;51.340;8.288;2023-07-29T14:53:02;2.30;;;2.10;;
9160;SDS011;4615;51.340;8.288;2023-07-29T14:55:28;2.22;;;2.03;;
9160;SDS011;4615;51.340;8.288;2023-07-29T14:57:55;2.80;;;2.10;;
9160;SDS011;4615;51.340;8.288;2023-07-29T15:00:21;2.63;;;1.83;;
9160;SDS011;4615;51.340;8.288;2023-07-29T15:02:48;2.40;;;1.98;;
9160;SDS011;4615;51.340;8.288;2023-07-29T15:05:14;1.87;;;1.70;;
9160;SDS011;4615;51.340;8.288;2023-07-29T15:07:40;1.95;;;1.70;;
9160;SDS011;4615;51.340;8.288;2023-07-29T15:10:08;2.28;;;2.08;;
9160;SDS011;4615;51.340;8.288;2023-07-29T15:12:35;2.00;;;1.80;;
9160;SDS011;4615;51.340;8.288;2023-07-29T15:15:01;1.90;;;1.58;;
9160;SDS011;4615;51.340;8.288;2023-07-29T15:17:27;1.80;;;1.70;;
9160;SDS011;4615;51.340;8.288;2023-07-29T15:19:54;2.30;;;1.70;;